createdAt,value
2022-08-12T00:00:34.109Z,8.43
2022-08-12T00:03:21.151Z,8.13
2022-08-12T00:06:09.578Z,9.15
2022-08-12T00:08:57.094Z,7.25
2022-08-12T00:11:44.884Z,7.85
2022-08-12T00:14:31.045Z,7.65
2022-08-12T00:17:17.174Z,8.43
2022-08-12T00:20:03.371Z,6.47
2022-08-12T00:22:58.858Z,9.45
2022-08-12T00:26:21.829Z,8.18
2022-08-12T00:29:02.443Z,8.00
2022-08-12T00:31:48.137Z,8.93
2022-08-12T00:34:35.252Z,7.28
2022-08-12T00:37:21.995Z,8.40
2022-08-12T00:40:11.411Z,6.82
2022-08-12T00:42:41.209Z,8.95
2022-08-12T00:45:11.040Z,7.95
2022-08-12T00:47:40.785Z,9.35
2022-08-12T00:50:17.798Z,7.45
2022-08-12T00:52:46.718Z,9.98
2022-08-12T00:55:17.423Z,8.65
2022-08-12T00:57:52.117Z,6.22
2022-08-12T01:00:22.405Z,9.35
2022-08-12T01:02:53.467Z,7.88
2022-08-12T01:05:46.402Z,11.52
2022-08-12T01:08:31.347Z,8.93
2022-08-12T01:11:18.736Z,8.40
2022-08-12T01:13:49.893Z,6.70
2022-08-12T01:16:22.858Z,6.85
2022-08-12T01:18:52.916Z,10.80
2022-08-12T01:21:35.733Z,7.00
2022-08-12T01:24:29.745Z,7.63
2022-08-12T01:27:02.569Z,9.70
2022-08-12T01:29:34.677Z,8.90
2022-08-12T01:32:11.545Z,8.77
2022-08-12T01:34:42.614Z,7.57
2022-08-12T01:37:11.455Z,7.90
2022-08-12T01:40:36.099Z,9.40
2022-08-12T01:42:44.537Z,10.18
2022-08-12T01:45:13.886Z,7.68
2022-08-12T01:48:05.297Z,8.25
2022-08-12T01:50:43.114Z,8.80
2022-08-12T01:53:13.281Z,9.95
2022-08-12T01:55:44.024Z,7.60
2022-08-12T01:58:26.759Z,9.93
2022-08-12T02:00:59.517Z,9.60
2022-08-12T02:04:05.281Z,7.82
2022-08-12T02:06:57.788Z,6.30
2022-08-12T02:09:58.241Z,9.93
2022-08-12T02:12:43.925Z,8.70
2022-08-12T02:15:26.021Z,7.88
2022-08-12T02:18:13.610Z,8.88
2022-08-12T02:20:52.193Z,7.78
2022-08-12T02:23:28.306Z,8.05
2022-08-12T02:26:01.135Z,8.43
2022-08-12T02:28:30.568Z,7.38
2022-08-12T02:31:06.259Z,10.07
2022-08-12T02:33:35.549Z,10.48
2022-08-12T02:36:04.195Z,8.13
2022-08-12T02:38:32.612Z,8.15
2022-08-12T02:41:04.493Z,12.18
2022-08-12T02:43:37.895Z,8.50
2022-08-12T02:46:14.002Z,9.38
2022-08-12T02:48:49.039Z,6.78
2022-08-12T02:51:20.788Z,10.45
2022-08-12T02:54:03.017Z,9.00
2022-08-12T02:56:37.973Z,7.72
2022-08-12T02:59:12.019Z,8.68
2022-08-12T03:01:49.957Z,7.90
2022-08-12T03:04:26.861Z,7.03
2022-08-12T03:07:04.811Z,7.45
2022-08-12T03:10:03.854Z,11.68
2022-08-12T03:12:26.795Z,10.55
2022-08-12T03:15:07.237Z,9.23
2022-08-12T03:17:46.220Z,9.77
2022-08-12T03:20:38.275Z,12.07
2022-08-12T03:23:10.213Z,12.30
2022-08-12T03:25:51.781Z,13.10
2022-08-12T03:28:40.871Z,10.45
2022-08-12T03:31:11.346Z,13.45
2022-08-12T03:34:00.448Z,11.15
2022-08-12T03:36:35.397Z,11.82
2022-08-12T03:39:36.376Z,10.52
2022-08-12T03:42:22.604Z,9.20
2022-08-12T03:45:16.322Z,11.48
2022-08-12T03:48:10.445Z,9.52
2022-08-12T03:51:00.921Z,11.35
2022-08-12T03:53:49.458Z,11.45
2022-08-12T03:56:35.908Z,10.52
2022-08-12T03:59:23.366Z,11.48
2022-08-12T04:01:57.945Z,11.27
2022-08-12T04:04:28.715Z,10.88
2022-08-12T04:06:59.256Z,13.95
2022-08-12T04:09:28.121Z,9.75
2022-08-12T04:12:13.487Z,12.80
2022-08-12T04:14:43.235Z,10.68
2022-08-12T04:17:12.119Z,11.77
2022-08-12T04:19:41.280Z,9.90
2022-08-12T04:22:12.572Z,13.00
2022-08-12T04:24:43.159Z,10.57
2022-08-12T04:27:17.000Z,8.55
2022-08-12T04:30:16.339Z,9.93
2022-08-12T04:32:35.051Z,14.15
2022-08-12T04:35:04.053Z,12.55
2022-08-12T04:37:57.507Z,12.68
2022-08-12T04:40:28.229Z,10.32
2022-08-12T04:42:57.051Z,10.90
2022-08-12T04:45:25.569Z,10.85
2022-08-12T04:47:54.454Z,12.70
2022-08-12T04:50:33.785Z,12.70
2022-08-12T04:53:08.534Z,11.45
2022-08-12T04:55:38.981Z,14.40
2022-08-12T04:58:07.624Z,11.30
2022-08-12T05:00:37.640Z,11.65
2022-08-12T05:03:06.445Z,12.80
2022-08-12T05:05:36.946Z,10.13
2022-08-12T05:08:12.756Z,12.43
2022-08-12T05:10:41.221Z,11.63
2022-08-12T05:13:12.226Z,11.25
2022-08-12T05:16:02.673Z,11.50
2022-08-12T05:18:31.251Z,15.20
2022-08-12T05:21:00.561Z,14.07
2022-08-12T05:23:32.339Z,10.52
2022-08-12T05:26:01.291Z,10.40
2022-08-12T05:28:30.737Z,12.05
2022-08-12T05:31:01.933Z,12.68
2022-08-12T05:33:38.723Z,12.77
2022-08-12T05:36:08.708Z,10.23
2022-08-12T05:38:56.509Z,13.68
2022-08-12T05:41:25.457Z,10.35
2022-08-12T05:43:56.479Z,9.90
2022-08-12T05:46:26.292Z,11.90
2022-08-12T05:48:55.549Z,10.75
2022-08-12T05:51:25.490Z,12.48
2022-08-12T05:54:09.857Z,14.57
2022-08-12T05:56:38.312Z,14.05
2022-08-12T05:59:07.793Z,9.82
2022-08-12T06:02:12.593Z,11.95
2022-08-12T06:04:25.709Z,12.30
2022-08-12T06:06:53.986Z,11.07
2022-08-12T06:09:25.651Z,11.07
2022-08-12T06:12:06.213Z,13.90
2022-08-12T06:14:37.773Z,11.45
2022-08-12T06:17:09.187Z,9.65
2022-08-12T06:20:25.844Z,10.88
2022-08-12T06:22:26.894Z,13.25
2022-08-12T06:24:56.553Z,7.70
2022-08-12T06:27:24.813Z,9.77
2022-08-12T06:30:08.847Z,13.02
2022-08-12T06:32:51.992Z,11.55
2022-08-12T06:35:47.821Z,11.32
2022-08-12T06:38:19.741Z,12.05
2022-08-12T06:41:12.846Z,10.60
2022-08-12T06:44:06.722Z,9.70
2022-08-12T06:46:31.273Z,10.77
2022-08-12T06:49:00.323Z,13.75
2022-08-12T06:51:30.421Z,11.18
2022-08-12T06:53:59.147Z,10.70
2022-08-12T06:56:59.564Z,8.80
2022-08-12T06:59:21.346Z,8.27
2022-08-12T07:01:51.705Z,11.98
2022-08-12T07:04:38.224Z,10.82
2022-08-12T07:07:08.728Z,10.25
2022-08-12T07:10:04.048Z,10.13
2022-08-12T07:12:27.914Z,10.75
2022-08-12T07:14:57.243Z,9.73
2022-08-12T07:17:25.484Z,9.07
2022-08-12T07:19:57.990Z,9.35
2022-08-12T07:22:29.048Z,10.15
2022-08-12T07:25:11.316Z,7.88
2022-08-12T07:27:42.682Z,10.48
2022-08-12T07:30:12.321Z,11.45
2022-08-12T07:32:40.514Z,12.20
2022-08-12T07:35:09.553Z,8.95
2022-08-12T07:37:42.165Z,11.07
2022-08-12T07:40:12.267Z,10.82
2022-08-12T07:42:43.806Z,9.40
2022-08-12T07:45:13.439Z,7.60
2022-08-12T07:47:43.440Z,8.70
2022-08-12T07:50:13.248Z,9.43
2022-08-12T07:52:43.915Z,9.25
2022-08-12T07:55:13.806Z,9.15
2022-08-12T07:57:58.024Z,9.00
2022-08-12T08:00:28.097Z,8.45
2022-08-12T08:02:56.593Z,8.57
2022-08-12T08:05:26.824Z,10.27
2022-08-12T08:07:55.680Z,8.00
2022-08-12T08:10:24.102Z,9.82
2022-08-12T08:12:58.396Z,10.85
2022-08-12T08:15:51.295Z,8.18
2022-08-12T08:18:25.756Z,7.57
2022-08-12T08:20:54.683Z,7.68
2022-08-12T08:23:29.257Z,7.57
2022-08-12T08:26:03.587Z,9.93
2022-08-12T08:28:36.613Z,7.25
2022-08-12T08:34:05.039Z,8.35
2022-08-12T08:36:24.144Z,6.32
2022-08-12T08:38:55.032Z,10.70
2022-08-12T08:42:14.107Z,8.90
2022-08-12T08:44:38.344Z,9.98
2022-08-12T08:47:08.227Z,9.68
2022-08-12T08:49:37.605Z,8.40
2022-08-12T08:52:07.150Z,8.60
2022-08-12T08:54:37.972Z,7.72
2022-08-12T08:57:08.236Z,5.10
2022-08-12T08:59:37.909Z,6.40
2022-08-12T09:02:07.565Z,8.18
2022-08-12T09:05:12.476Z,8.18
2022-08-12T09:07:51.559Z,7.15
2022-08-12T09:10:30.570Z,6.05
2022-08-12T09:13:23.369Z,7.05
2022-08-12T09:15:59.565Z,8.80
2022-08-12T09:21:16.891Z,8.27
2022-08-12T09:26:46.060Z,5.25
2022-08-12T09:29:15.578Z,6.68
2022-08-12T09:32:07.945Z,5.32
2022-08-12T09:34:42.212Z,5.38
2022-08-12T09:37:18.758Z,6.65
2022-08-12T09:40:05.030Z,7.78
2022-08-12T09:43:17.358Z,4.45
2022-08-12T09:46:11.025Z,9.40
2022-08-12T09:48:39.229Z,7.70
2022-08-12T09:51:17.198Z,7.65
2022-08-12T09:54:06.018Z,5.10
2022-08-12T09:56:59.309Z,5.93
2022-08-12T10:00:17.196Z,7.45
2022-08-12T10:02:43.053Z,6.38
2022-08-12T10:05:13.706Z,5.68
2022-08-12T10:07:45.868Z,9.20
2022-08-12T10:10:24.389Z,8.10
2022-08-12T10:13:14.465Z,7.18
2022-08-12T10:16:02.459Z,6.55
2022-08-12T10:18:35.444Z,9.52
2022-08-12T10:21:09.515Z,6.30
2022-08-12T10:23:40.413Z,8.45
2022-08-12T10:26:37.889Z,5.70
2022-08-12T10:30:37.150Z,7.38
2022-08-12T10:32:20.749Z,4.35
2022-08-12T10:34:53.442Z,7.20
2022-08-12T10:38:37.479Z,6.68
2022-08-12T10:40:19.674Z,4.90
2022-08-12T10:43:06.441Z,5.75
2022-08-12T10:45:38.320Z,6.18
2022-08-12T10:48:21.711Z,6.47
2022-08-12T10:51:01.890Z,6.93
2022-08-12T10:53:43.937Z,6.68
2022-08-12T10:56:13.446Z,5.10
2022-08-12T10:58:46.128Z,6.28
2022-08-12T11:01:25.751Z,7.20
2022-08-12T11:04:35.443Z,5.55
2022-08-12T11:07:07.640Z,6.88
2022-08-12T11:10:00.936Z,6.60
2022-08-12T11:12:55.503Z,5.80
2022-08-12T11:15:33.147Z,6.85
2022-08-12T11:18:12.279Z,6.10
2022-08-12T11:20:48.539Z,5.65
2022-08-12T11:23:25.898Z,6.72
2022-08-12T11:26:08.150Z,6.72
2022-08-12T11:28:38.770Z,7.68
2022-08-12T11:31:12.387Z,5.88
2022-08-12T11:34:05.010Z,5.03
2022-08-12T11:36:32.099Z,5.05
2022-08-12T11:39:04.241Z,5.07
2022-08-12T11:41:34.750Z,5.75
2022-08-12T11:44:35.063Z,6.22
2022-08-12T11:46:54.103Z,5.90
2022-08-12T11:49:31.136Z,7.38
2022-08-12T11:52:03.081Z,5.35
2022-08-12T11:54:32.051Z,5.78
2022-08-12T11:58:19.782Z,6.38
2022-08-12T12:02:40.440Z,5.97
2022-08-12T12:05:09.529Z,5.18
2022-08-12T12:08:37.500Z,5.50
2022-08-12T12:10:29.167Z,5.20
2022-08-12T12:12:58.700Z,4.50
2022-08-12T12:15:41.263Z,5.97
2022-08-12T12:18:22.392Z,7.03
2022-08-12T12:20:51.206Z,5.97
2022-08-12T12:23:29.313Z,5.03
2022-08-12T12:25:59.326Z,7.90
2022-08-12T12:28:39.700Z,5.85
2022-08-12T12:31:14.951Z,5.32
2022-08-12T12:33:58.274Z,6.72
2022-08-12T12:36:30.056Z,4.85
2022-08-12T12:38:59.956Z,4.50
2022-08-12T12:42:41.706Z,6.50
2022-08-12T12:44:30.367Z,7.43
2022-08-12T12:47:28.788Z,7.03
2022-08-12T12:49:56.633Z,7.80
2022-08-12T12:52:27.005Z,6.00
2022-08-12T12:54:58.760Z,5.70
2022-08-12T12:57:59.354Z,5.60
2022-08-12T13:00:19.026Z,7.63
2022-08-12T13:02:55.701Z,8.27
2022-08-12T13:05:27.736Z,4.18
2022-08-12T13:08:00.771Z,3.47
2022-08-12T13:10:36.848Z,5.20
2022-08-12T13:14:09.481Z,5.93
2022-08-12T13:15:59.383Z,6.57
2022-08-12T13:18:28.894Z,5.88
2022-08-12T13:20:59.511Z,7.80
2022-08-12T13:23:36.825Z,4.63
2022-08-12T13:26:14.518Z,6.03
2022-08-12T13:28:53.408Z,8.52
2022-08-12T13:31:27.269Z,4.47
2022-08-12T13:34:32.740Z,7.93
2022-08-12T13:36:45.498Z,5.82
2022-08-12T13:39:16.348Z,7.25
2022-08-12T13:41:44.843Z,4.28
2022-08-12T13:44:13.390Z,6.38
2022-08-12T13:46:43.229Z,6.97
2022-08-12T13:49:17.613Z,6.78
2022-08-12T13:52:03.925Z,4.67
2022-08-12T13:54:32.999Z,7.68
2022-08-12T13:57:01.570Z,4.55
2022-08-12T13:59:30.911Z,6.88
2022-08-12T14:02:18.722Z,5.78
2022-08-12T14:04:56.549Z,5.22
2022-08-12T14:07:26.162Z,7.50
2022-08-12T14:10:16.286Z,5.57
2022-08-12T14:12:54.872Z,7.10
2022-08-12T14:15:26.682Z,4.57
2022-08-12T14:18:14.845Z,5.75
2022-08-12T14:20:47.563Z,4.90
2022-08-12T14:24:08.121Z,6.20
2022-08-12T14:26:11.775Z,6.53
2022-08-12T14:28:45.458Z,5.70
2022-08-12T14:31:32.042Z,5.07
2022-08-12T14:34:04.977Z,5.93
2022-08-12T14:36:34.188Z,6.55
2022-08-12T14:39:06.615Z,5.47
2022-08-12T14:41:37.164Z,6.70
2022-08-12T14:44:59.690Z,3.28
2022-08-12T14:47:07.758Z,6.22
2022-08-12T14:50:37.063Z,7.63
2022-08-12T14:53:15.316Z,11.15
2022-08-12T14:58:04.525Z,5.10
2022-08-12T15:00:53.448Z,4.20
2022-08-12T15:03:52.455Z,4.55
2022-08-12T15:06:43.083Z,5.78
2022-08-12T15:09:12.110Z,4.53
2022-08-12T15:11:55.776Z,5.50
2022-08-12T15:14:30.729Z,5.65
2022-08-12T15:17:00.180Z,6.47
2022-08-12T15:20:30.958Z,5.78
2022-08-12T15:22:38.217Z,4.82
2022-08-12T15:25:08.977Z,3.53
2022-08-12T15:28:03.851Z,4.53
2022-08-12T15:30:33.760Z,5.45
2022-08-12T15:33:12.192Z,7.68
2022-08-12T15:35:50.329Z,4.30
2022-08-12T15:38:27.220Z,4.30
2022-08-12T15:40:59.155Z,7.80
2022-08-12T15:43:51.672Z,5.03
2022-08-12T15:46:18.410Z,4.10
2022-08-12T15:48:49.603Z,5.10
2022-08-12T15:51:58.889Z,5.47
2022-08-12T15:54:34.343Z,5.57
2022-08-12T15:57:08.117Z,5.07
2022-08-12T16:00:04.578Z,4.95
2022-08-12T16:02:29.816Z,7.32
2022-08-12T16:04:59.084Z,5.15
2022-08-12T16:07:31.213Z,5.32
2022-08-12T16:10:06.833Z,6.18
2022-08-12T16:12:41.998Z,4.00
2022-08-12T16:15:13.433Z,6.03
2022-08-12T16:18:15.039Z,6.38
2022-08-12T16:20:33.517Z,6.65
2022-08-12T16:23:50.928Z,3.58
2022-08-12T16:26:05.264Z,6.68
2022-08-12T16:28:35.170Z,5.13
2022-08-12T16:31:05.752Z,4.88
2022-08-12T16:33:56.244Z,4.20
2022-08-12T16:36:27.765Z,4.32
2022-08-12T16:38:56.061Z,4.13
2022-08-12T16:41:28.162Z,5.43
2022-08-12T16:43:56.899Z,3.63
2022-08-12T16:46:32.649Z,6.97
2022-08-12T16:49:09.188Z,5.75
2022-08-12T16:51:46.827Z,5.63
2022-08-12T16:54:17.267Z,6.18
2022-08-12T16:56:50.711Z,4.53
2022-08-12T16:59:24.158Z,6.65
2022-08-12T17:01:52.635Z,7.82
2022-08-12T17:04:24.269Z,5.25
2022-08-12T17:06:53.669Z,4.53
2022-08-12T17:09:22.361Z,5.82
2022-08-12T17:11:52.911Z,4.95
2022-08-12T17:14:23.416Z,4.80
2022-08-12T17:16:55.636Z,5.28
2022-08-12T17:20:30.467Z,6.38
2022-08-12T17:22:16.453Z,6.80
2022-08-12T17:24:54.559Z,5.82
2022-08-12T17:27:26.683Z,5.82
2022-08-12T17:30:04.209Z,4.53
2022-08-12T17:32:36.025Z,5.45
2022-08-12T17:35:29.667Z,5.97
2022-08-12T17:38:00.359Z,6.93
2022-08-12T17:40:36.402Z,5.90
2022-08-12T17:43:54.617Z,6.90
2022-08-12T17:45:59.772Z,6.20
2022-08-12T17:48:34.719Z,7.05
2022-08-12T17:51:07.122Z,6.43
2022-08-12T17:54:05.932Z,8.15
2022-08-12T17:56:27.999Z,6.03
2022-08-12T17:59:02.249Z,7.07
2022-08-12T18:01:34.812Z,7.75
2022-08-12T18:04:20.926Z,6.35
2022-08-12T18:06:50.954Z,6.68
2022-08-12T18:09:21.527Z,5.78
2022-08-12T18:12:12.070Z,5.57
2022-08-12T18:14:47.504Z,5.72
2022-08-12T18:17:18.158Z,10.98
2022-08-12T18:20:06.007Z,8.55
2022-08-12T18:22:35.961Z,7.43
2022-08-12T18:25:06.755Z,5.18
2022-08-12T18:28:15.847Z,5.18
2022-08-12T18:30:52.888Z,6.80
2022-08-12T18:33:25.849Z,4.07
2022-08-12T18:35:56.916Z,4.90
2022-08-12T18:38:28.700Z,6.15
2022-08-12T18:41:20.946Z,8.50
2022-08-12T18:44:02.751Z,5.43
2022-08-12T18:46:47.374Z,4.35
2022-08-12T18:49:20.009Z,7.40
2022-08-12T18:52:02.258Z,4.22
2022-08-12T18:54:33.303Z,7.45
2022-08-12T18:57:15.479Z,5.88
2022-08-12T19:00:01.273Z,8.00
2022-08-12T19:02:40.744Z,6.95
2022-08-12T19:05:11.671Z,6.65
2022-08-12T19:07:48.961Z,8.38
2022-08-12T19:10:22.969Z,7.15
2022-08-12T19:13:09.205Z,5.85
2022-08-12T19:15:42.353Z,4.85
2022-08-12T19:18:13.278Z,5.63
2022-08-12T19:20:47.828Z,6.18
2022-08-12T19:23:20.917Z,6.38
2022-08-12T19:25:59.421Z,5.35
2022-08-12T19:28:34.985Z,5.43
2022-08-12T19:31:56.005Z,5.40
2022-08-12T19:37:27.147Z,8.35
2022-08-12T19:40:09.151Z,6.95
2022-08-12T19:42:57.810Z,4.55
2022-08-12T19:45:42.284Z,5.85
2022-08-12T19:48:18.204Z,6.88
2022-08-12T19:50:50.373Z,7.40
2022-08-12T19:53:22.833Z,6.32
2022-08-12T19:55:53.186Z,8.25
2022-08-12T19:58:22.598Z,5.25
2022-08-12T20:00:55.751Z,9.60
2022-08-12T20:03:40.461Z,6.63
2022-08-12T20:06:15.764Z,6.38
2022-08-12T20:08:56.779Z,6.45
2022-08-12T20:12:11.400Z,4.28
2022-08-12T20:14:17.830Z,5.68
2022-08-12T20:16:53.155Z,7.20
2022-08-12T20:19:53.090Z,7.75
2022-08-12T20:22:23.933Z,6.03
2022-08-12T20:25:01.132Z,6.22
2022-08-12T20:28:04.885Z,6.78
2022-08-12T20:30:37.939Z,5.35
2022-08-12T20:33:19.366Z,4.55
2022-08-12T20:36:12.934Z,5.22
2022-08-12T20:38:51.333Z,5.45
2022-08-12T20:41:20.841Z,5.20
2022-08-12T20:43:54.945Z,6.33
2022-08-12T20:46:28.045Z,7.05
2022-08-12T20:48:57.747Z,5.60
2022-08-12T20:51:28.048Z,4.63
2022-08-12T20:54:10.291Z,6.23
2022-08-12T20:56:39.632Z,7.00
2022-08-12T20:59:10.779Z,5.47
2022-08-12T21:01:46.356Z,6.70
2022-08-12T21:04:35.713Z,6.68
2022-08-12T21:07:09.619Z,7.10
2022-08-12T21:09:42.183Z,6.90
2022-08-12T21:12:28.262Z,6.72
2022-08-12T21:15:17.385Z,5.43
2022-08-12T21:18:01.278Z,7.07
2022-08-12T21:20:37.955Z,6.20
2022-08-12T21:23:07.822Z,5.80
2022-08-12T21:25:45.725Z,7.18
2022-08-12T21:28:14.860Z,5.53
2022-08-12T21:31:11.587Z,7.78
2022-08-12T21:33:58.698Z,7.53
2022-08-12T21:36:22.532Z,6.65
2022-08-12T21:38:58.312Z,5.43
2022-08-12T21:41:27.825Z,7.78
2022-08-12T21:44:01.883Z,6.05
2022-08-12T21:46:34.777Z,8.10
2022-08-12T21:49:05.622Z,6.13
2022-08-12T21:51:49.644Z,6.45
2022-08-12T21:54:21.987Z,9.35
2022-08-12T21:56:53.678Z,5.38
2022-08-12T21:59:23.027Z,9.00
2022-08-12T22:01:51.487Z,7.78
2022-08-12T22:04:37.973Z,7.13
2022-08-12T22:07:07.051Z,6.47
2022-08-12T22:09:42.589Z,6.80
2022-08-12T22:12:30.881Z,4.10
2022-08-12T22:14:59.335Z,7.38
2022-08-12T22:17:50.334Z,5.70
2022-08-12T22:20:23.837Z,8.70
2022-08-12T22:23:00.406Z,6.88
2022-08-12T22:25:31.229Z,5.28
2022-08-12T22:28:24.687Z,5.25
2022-08-12T22:31:11.122Z,5.47
2022-08-12T22:33:54.542Z,7.30
2022-08-12T22:36:29.506Z,7.20
2022-08-12T22:38:59.144Z,7.78
2022-08-12T22:41:45.806Z,6.82
2022-08-12T22:44:32.873Z,6.97
2022-08-12T22:47:53.536Z,4.85
2022-08-12T22:50:27.778Z,5.00
2022-08-12T22:53:14.637Z,6.97
2022-08-12T22:55:59.890Z,4.68
2022-08-12T22:58:35.259Z,4.90
2022-08-12T23:01:06.249Z,6.30
2022-08-12T23:03:48.751Z,5.22
2022-08-12T23:06:21.436Z,7.07
2022-08-12T23:08:49.933Z,7.80
2022-08-12T23:11:23.596Z,5.35
2022-08-12T23:13:57.229Z,6.50
2022-08-12T23:16:33.410Z,6.30
2022-08-12T23:19:09.854Z,4.60
2022-08-12T23:22:04.224Z,3.90
2022-08-12T23:24:29.197Z,4.85
2022-08-12T23:27:15.228Z,6.50
2022-08-12T23:30:17.782Z,8.50
2022-08-12T23:32:35.997Z,7.78
2022-08-12T23:35:06.705Z,6.55
2022-08-12T23:37:47.516Z,8.13
2022-08-12T23:40:24.692Z,5.40
2022-08-12T23:42:55.270Z,6.47
2022-08-12T23:45:31.423Z,8.77
2022-08-12T23:48:03.526Z,5.35
2022-08-12T23:50:34.106Z,6.43
2022-08-12T23:53:05.449Z,5.20
2022-08-12T23:55:38.186Z,5.03
2022-08-12T23:58:21.681Z,5.65
